createdAt,value
2018-01-06T00:00:04.583Z,4.5
2018-01-06T00:05:03.237Z,4.5
2018-01-06T00:10:02.817Z,4.5
2018-01-06T00:15:03.358Z,4.5
2018-01-06T00:20:03.112Z,4.5
2018-01-06T00:25:02.702Z,4.5
2018-01-06T00:30:03.209Z,4.8
2018-01-06T00:35:02.656Z,4.5
2018-01-06T00:40:03.361Z,4.5
2018-01-06T00:45:02.952Z,4.5
2018-01-06T00:50:02.380Z,4.5
2018-01-06T00:55:03.004Z,4.5
2018-01-06T01:00:02.551Z,4.3
2018-01-06T01:05:03.307Z,4.3
2018-01-06T01:10:02.894Z,4.3
2018-01-06T01:15:02.387Z,4.0
2018-01-06T01:20:03.070Z,4.3
2018-01-06T01:25:02.637Z,4.0
2018-01-06T01:30:03.097Z,4.0
2018-01-06T01:35:02.550Z,4.0
2018-01-06T01:45:02.855Z,4.0
2018-01-06T01:50:03.328Z,4.0
2018-01-06T01:55:02.782Z,4.0
2018-01-06T02:00:03.279Z,4.0
2018-01-06T02:05:02.912Z,4.0
2018-01-06T02:15:03.247Z,4.0
2018-01-06T02:20:02.764Z,4.0
2018-01-06T02:25:02.541Z,4.0
2018-01-06T02:30:03.043Z,4.0
2018-01-06T02:35:02.673Z,4.0
2018-01-06T02:40:03.343Z,4.0
2018-01-06T02:45:02.828Z,4.0
2018-01-06T02:50:03.665Z,3.5
2018-01-06T02:55:03.329Z,3.7
2018-01-06T03:00:02.829Z,3.7
2018-01-06T03:05:03.278Z,3.7
2018-01-06T03:10:02.977Z,3.7
2018-01-06T03:15:02.461Z,3.5
2018-01-06T03:20:03.066Z,3.7
2018-01-06T03:25:02.533Z,3.7
2018-01-06T03:30:03.092Z,3.7
2018-01-06T03:35:02.618Z,3.7
2018-01-06T03:40:03.201Z,3.7
2018-01-06T03:45:02.887Z,3.7
2018-01-06T03:50:02.493Z,3.7
2018-01-06T03:55:02.941Z,3.7
2018-01-06T04:00:03.522Z,3.7
2018-01-06T04:05:03.187Z,3.7
2018-01-06T04:10:02.995Z,3.7
2018-01-06T04:15:02.553Z,3.5
2018-01-06T04:20:02.999Z,3.5
2018-01-06T04:25:02.641Z,3.7
2018-01-06T04:30:03.110Z,4.0
2018-01-06T04:35:02.742Z,4.0
2018-01-06T04:40:02.397Z,4.0
2018-01-06T04:45:02.853Z,4.0
2018-01-06T04:50:02.499Z,4.0
2018-01-06T04:55:02.993Z,4.0
2018-01-06T05:00:02.537Z,4.0
2018-01-06T05:05:02.997Z,4.0
2018-01-06T05:10:03.116Z,4.0
2018-01-06T05:15:02.667Z,4.0
2018-01-06T05:20:03.308Z,4.0
2018-01-06T05:25:02.765Z,4.0
2018-01-06T05:30:03.274Z,4.0
2018-01-06T05:35:02.951Z,4.0
2018-01-06T05:40:02.613Z,4.0
2018-01-06T05:45:03.544Z,4.0
2018-01-06T05:50:02.972Z,4.0
2018-01-06T05:55:02.632Z,4.0
2018-01-06T06:00:03.386Z,4.0
2018-01-06T06:05:03.048Z,4.0
2018-01-06T06:15:02.407Z,4.0
2018-01-06T06:20:02.915Z,4.0
2018-01-06T06:25:02.607Z,4.0
2018-01-06T06:30:03.333Z,3.7
2018-01-06T06:35:02.791Z,3.7
2018-01-06T06:40:02.508Z,3.7
2018-01-06T06:45:03.300Z,4.0
2018-01-06T06:50:02.766Z,3.7
2018-01-06T06:55:03.338Z,3.7
2018-01-06T07:00:02.754Z,3.7
2018-01-06T07:05:03.233Z,3.7
2018-01-06T07:10:02.680Z,3.5
2018-01-06T07:15:03.203Z,3.5
2018-01-06T07:20:02.719Z,3.5
2018-01-06T07:25:03.218Z,3.7
2018-01-06T07:30:02.726Z,3.7
2018-01-06T07:35:03.252Z,3.5
2018-01-06T07:40:02.767Z,3.2
2018-01-06T07:45:02.433Z,3.2
2018-01-06T07:50:03.230Z,3.2
2018-01-06T07:55:02.719Z,3.5
2018-01-06T08:00:03.232Z,3.7
2018-01-06T08:05:02.820Z,3.7
2018-01-06T08:10:02.488Z,3.7
2018-01-06T08:15:02.982Z,3.2
2018-01-06T08:20:02.770Z,3.2
2018-01-06T08:25:02.401Z,3.2
2018-01-06T08:30:03.009Z,3.2
2018-01-06T08:35:02.693Z,3.2
2018-01-06T08:40:03.377Z,3.7
2018-01-06T08:45:03.134Z,3.7
2018-01-06T08:50:02.581Z,3.7
2018-01-06T08:55:03.088Z,3.7
2018-01-06T09:00:02.782Z,4.0
2018-01-06T09:05:02.413Z,4.3
2018-01-06T09:10:03.054Z,4.3
2018-01-06T09:15:02.691Z,4.3
2018-01-06T09:20:03.377Z,4.5
2018-01-06T09:25:03.006Z,4.5
2018-01-06T09:30:02.808Z,4.5
2018-01-06T09:35:02.945Z,4.3
2018-01-06T09:40:02.883Z,4.5
2018-01-06T09:45:02.828Z,4.8
2018-01-06T09:50:02.659Z,4.5
2018-01-06T09:55:03.325Z,4.5
2018-01-06T10:00:02.976Z,5.0
2018-01-06T10:05:02.998Z,5.0
2018-01-06T10:10:02.663Z,5.8
2018-01-06T10:15:03.150Z,5.4
2018-01-06T10:20:02.920Z,5.3
2018-01-06T10:25:02.548Z,5.0
2018-01-06T10:30:03.183Z,5.3
2018-01-06T10:35:02.717Z,5.0
2018-01-06T10:40:03.256Z,5.3
2018-01-06T10:45:02.721Z,5.0
2018-01-06T10:50:03.161Z,5.0
2018-01-06T10:55:02.602Z,5.3
2018-01-06T11:00:03.111Z,5.4
2018-01-06T11:05:02.626Z,5.8
2018-01-06T11:10:03.226Z,5.8
2018-01-06T11:15:02.768Z,5.8
2018-01-06T11:20:02.445Z,5.8
2018-01-06T11:25:03.003Z,6.0
2018-01-06T11:30:02.551Z,6.0
2018-01-06T11:35:03.056Z,6.0
2018-01-06T11:40:02.709Z,6.0
2018-01-06T11:45:03.503Z,6.0
2018-01-06T11:50:03.547Z,6.0
2018-01-06T12:00:02.928Z,6.1
2018-01-06T12:05:02.671Z,6.1
2018-01-06T12:10:02.465Z,6.5
2018-01-06T12:15:03.101Z,6.6
2018-01-06T12:20:02.652Z,6.6
2018-01-06T12:25:03.329Z,6.6
2018-01-06T12:30:02.846Z,6.5
2018-01-06T12:40:03.076Z,6.4
2018-01-06T12:45:02.514Z,6.4
2018-01-06T12:50:03.189Z,6.4
2018-01-06T12:55:02.726Z,6.1
2018-01-06T13:00:02.505Z,6.5
2018-01-06T13:05:03.189Z,6.5
2018-01-06T13:10:02.836Z,6.4
2018-01-06T13:15:02.461Z,6.4
2018-01-06T13:20:03.107Z,6.5
2018-01-06T13:25:02.680Z,6.4
2018-01-06T13:30:03.236Z,6.4
2018-01-06T13:35:02.899Z,6.1
2018-01-06T13:40:02.566Z,6.1
2018-01-06T13:45:03.138Z,6.4
2018-01-06T13:50:02.540Z,6.1
2018-01-06T13:55:03.148Z,6.4
2018-01-06T14:00:02.811Z,6.5
2018-01-06T14:05:03.316Z,6.4
2018-01-06T14:10:02.791Z,6.4
2018-01-06T14:15:03.519Z,6.6
2018-01-06T14:20:03.134Z,6.4
2018-01-06T14:25:02.750Z,6.0
2018-01-06T14:30:02.611Z,6.0
2018-01-06T14:35:03.177Z,5.9
2018-01-06T14:40:02.755Z,6.0
2018-01-06T14:45:02.881Z,6.0
2018-01-06T14:50:02.515Z,6.1
2018-01-06T14:55:03.176Z,6.0
2018-01-06T15:00:02.624Z,6.0
2018-01-06T15:05:03.125Z,6.1
2018-01-06T15:10:02.790Z,6.1
2018-01-06T15:20:02.479Z,6.0
2018-01-06T15:25:03.096Z,6.0
2018-01-06T15:30:22.676Z,5.9
2018-01-06T15:35:03.152Z,5.8
2018-01-06T15:40:02.709Z,5.8
2018-01-06T15:45:02.459Z,5.8
2018-01-06T15:50:02.982Z,5.5
2018-01-06T15:55:02.652Z,5.5
2018-01-06T16:00:03.290Z,5.5
2018-01-06T16:05:02.968Z,5.4
2018-01-06T16:10:02.517Z,5.4
2018-01-06T16:15:03.017Z,5.4
2018-01-06T16:20:02.730Z,5.4
2018-01-06T16:25:03.264Z,5.3
2018-01-06T16:30:02.722Z,5.3
2018-01-06T16:35:02.745Z,5.3
2018-01-06T16:40:03.288Z,5.0
2018-01-06T16:45:02.806Z,5.3
2018-01-06T16:50:03.001Z,5.3
2018-01-06T16:55:02.644Z,5.3
2018-01-06T17:00:03.233Z,5.3
2018-01-06T17:05:02.986Z,5.3
2018-01-06T17:10:02.683Z,5.3
2018-01-06T17:15:02.408Z,5.3
2018-01-06T17:20:02.928Z,5.3
2018-01-06T17:25:02.603Z,5.3
2018-01-06T17:30:03.095Z,5.3
2018-01-06T17:35:02.608Z,5.3
2018-01-06T17:40:03.361Z,5.3
2018-01-06T17:45:03.027Z,5.4
2018-01-06T17:50:02.698Z,5.4
2018-01-06T17:55:03.351Z,5.4
2018-01-06T18:00:02.799Z,5.4
2018-01-06T18:05:02.585Z,5.4
2018-01-06T18:10:03.320Z,5.4
2018-01-06T18:15:02.838Z,5.4
2018-01-06T18:20:02.554Z,5.3
2018-01-06T18:25:03.109Z,5.4
2018-01-06T18:30:02.553Z,5.4
2018-01-06T18:35:03.177Z,5.4
2018-01-06T18:40:02.888Z,5.4
2018-01-06T18:45:03.652Z,5.5
2018-01-06T18:50:03.458Z,5.5
2018-01-06T18:55:03.468Z,5.4
2018-01-06T19:00:03.165Z,5.4
2018-01-06T19:05:03.139Z,5.4
2018-01-06T19:10:02.800Z,5.4
2018-01-06T19:15:02.767Z,5.4
2018-01-06T19:20:02.579Z,5.4
2018-01-06T19:25:03.314Z,5.4
2018-01-06T19:30:02.983Z,5.4
2018-01-06T19:35:02.599Z,5.4
2018-01-06T19:40:03.144Z,5.4
2018-01-06T19:45:02.613Z,5.4
2018-01-06T19:50:03.123Z,5.4
2018-01-06T19:55:02.638Z,5.4
2018-01-06T20:00:03.196Z,5.3
2018-01-06T20:05:02.635Z,5.3
2018-01-06T20:10:03.298Z,5.3
2018-01-06T20:15:02.859Z,5.0
2018-01-06T20:20:02.549Z,5.0
2018-01-06T20:25:03.142Z,5.0
2018-01-06T20:30:02.575Z,5.0
2018-01-06T20:35:03.145Z,5.0
2018-01-06T20:40:02.826Z,5.0
2018-01-06T20:45:03.292Z,4.8
2018-01-06T20:50:02.874Z,4.8
2018-01-06T20:55:03.346Z,4.5
2018-01-06T21:00:02.990Z,4.5
2018-01-06T21:05:02.602Z,4.5
2018-01-06T21:10:03.145Z,4.3
2018-01-06T21:15:02.855Z,4.3
2018-01-06T21:20:02.520Z,4.0
2018-01-06T21:25:03.023Z,4.0
2018-01-06T21:30:02.642Z,4.0
2018-01-06T21:35:03.323Z,4.0
2018-01-06T21:40:03.062Z,3.7
2018-01-06T21:45:03.141Z,3.7
2018-01-06T21:50:02.707Z,3.7
2018-01-06T21:55:03.231Z,3.5
2018-01-06T22:00:02.873Z,3.2
2018-01-06T22:05:02.607Z,3.2
2018-01-06T22:10:03.103Z,3.2
2018-01-06T22:15:02.694Z,3.2
2018-01-06T22:20:03.166Z,3.2
2018-01-06T22:25:02.665Z,3.0
2018-01-06T22:30:03.431Z,2.9
2018-01-06T22:35:03.054Z,3.0
2018-01-06T22:40:02.538Z,3.0
2018-01-06T22:45:03.174Z,3.0
2018-01-06T22:50:02.710Z,3.0
2018-01-06T22:55:03.186Z,3.0
2018-01-06T23:00:02.769Z,2.9
2018-01-06T23:05:02.395Z,2.9
2018-01-06T23:10:02.934Z,2.9
2018-01-06T23:15:02.643Z,2.7
2018-01-06T23:20:03.077Z,2.9
2018-01-06T23:25:02.616Z,2.7
2018-01-06T23:30:03.308Z,2.7
2018-01-06T23:35:02.777Z,2.7
2018-01-06T23:40:02.519Z,2.7
2018-01-06T23:45:03.163Z,2.5
2018-01-06T23:50:02.752Z,2.5
2018-01-06T23:55:03.401Z,2.7
